Potsdam, NY

44° 42' 44"N, 74° 57' 12"W, Elevation 460 ft.
Eastern Time

Hourly observations for the last 72 hours

Date Time Temperature (°F) Humi-
dity

(%)
Wind
(mph)
Pressure Rain (in)
Air Dew 6 Hour 1 Hr 3 Hr 6 Hr Day
Alt
(in)
Sea
Level

(mb)
Max Min
17 03:00 71.5 70.3 96 SW 4 G 13 29.76 1007.9 0.02 0.20
17 02:00 72.6 70.1 82.0 72.6 92 NE 0 G 8 29.75 1007.6 0.18 0.18 0.18 0.18
17 01:00 76.1 70.2 82 S 0 G 6 29.75 1007.7 0.00
17 00:00 75.7 68.0 77 S 2 G 7 29.77 1008.3 0.00
16 23:00 75.4 68.8 80 SW 0 G 5 29.78 1008.6 0.00
16 22:00 75.5 70.0 83 S 0 G 2 29.78 1008.5 0.00
16 21:00 76.9 69.9 79 W 0 G 1 29.79 1008.7 0.00
16 20:00 82.0 72.1 94.2 82.0 72 Calm 29.80 1009.1 0.00
16 19:00 86.0 71.0 61 W 0 G 7 29.80 1009.2 0.00
16 18:00 89.5 74.8 62 NNW 0 G 4 29.81 1009.4 0.00
16 17:00 90.9 72.5 55 NNW 0 G 5 29.81 1009.7 0.00
16 16:00 91.8 71.1 51 WNW 2 G 7 29.83 1010.3 0.00
16 15:00 93.5 70.3 47 SW 2 G 10 29.84 1010.6 0.00
16 14:00 92.6 68.8 92.9 70.7 46 WSW 1 G 10 29.86 1011.3 0.00
16 13:00 91.7 69.3 48 SSW 1 G 6 29.89 1012.3 0.00
16 12:00 89.2 73.0 59 NW 3 G 8 29.92 1013.1 0.00
16 11:00 87.3 71.7 60 WNW 2 G 10 29.92 1013.4 0.00
16 10:00 83.6 71.9 68 WNW 1 G 7 29.94 1013.8 0.00
16 09:00 77.1 68.6 75 S 0 G 5 29.95 1014.2 0.00
16 08:00 70.7 65.3 70.7 60.9 83 SSE 0 G 3 29.96 1014.5 0.00
16 07:00 66.6 62.6 87 S 1 G 6 29.95 1014.4 0.00
16 06:00 63.2 61.4 94 S 1 G 4 29.95 1014.2 0.00
16 05:00 61.0 59.6 95 Calm 29.94 1013.9 0.00
16 04:00 61.5 59.5 93 S 0 G 4 29.95 1014.1 0.00
16 03:00 61.2 59.5 94 SSE 0 G 1 29.95 1014.3 0.00
16 02:00 62.6 60.2 78.5 62.6 92 Calm 29.95 1014.2 0.00
16 01:00 66.0 62.0 87 SSE 0 G 1 29.95 1014.2 0.00
16 00:00 66.0 63.0 90 E 0 G 1 29.94 1014.1 0.00
15 23:00 67.0 63.7 89 ENE 0 G 1 29.95 1014.2 0.00
15 22:00 68.9 64.9 87 NNE 0 G 1 29.93 1013.6 0.00
15 21:00 72.2 66.8 83 Calm 29.92 1013.4 0.00
15 20:00 78.5 67.9 90.5 78.5 70 Calm 29.93 1013.5 0.00
15 19:00 84.6 66.7 55 NNE 0 G 1 29.93 1013.5 0.00
15 18:00 89.4 67.8 49 W 0 G 1 29.92 1013.3 0.00
15 17:00 89.8 66.3 46 NNW 1 G 5 29.93 1013.7 0.00
15 16:00 90.4 67.5 47 NNE 1 G 8 29.94 1013.8 0.00
15 15:00 88.2 64.8 46 WNW 0 G 4 29.94 1014.1 0.00
15 14:00 88.1 66.0 88.2 70.7 48 NW 2 G 7 29.95 1014.3 0.00
15 13:00 86.5 67.9 54 N 0 G 3 29.96 1014.5 0.00
15 12:00 84.8 69.9 61 WNW 0 G 6 29.96 1014.5 0.00
15 11:00 82.3 69.8 66 W 1 G 6 29.96 1014.5 0.00
15 10:00 77.5 71.2 81 W 0 G 1 29.97 1015.0 0.00
15 09:00 72.8 70.3 92 NW 0 G 4 29.98 1015.3 0.00
15 08:00 70.7 69.2 70.7 68.5 95 NW 0 G 4 29.98 1015.2 0.00
15 07:00 69.7 68.8 97 SSW 0 G 7 29.96 1014.7 0.00
15 06:00 68.6 67.4 96 SSW 1 G 11 29.96 1014.5 0.00
15 05:00 68.7 67.5 96 W 1 G 7 29.95 1014.3 0.00
15 04:00 69.1 67.9 96 SW 1 G 9 29.95 1014.2 0.00
15 03:00 69.8 68.3 95 SW 0 G 3 29.95 1014.1 0.00
15 02:00 69.9 68.1 78.1 69.8 94 SW 1 G 6 29.95 1014.2 0.00
15 01:00 70.5 68.1 92 SSW 0 G 4 29.96 1014.7 0.00
15 00:00 71.1 68.0 90 S 1 G 9 29.95 1014.4 0.03
14 23:00 71.4 68.0 89 S 1 G 5 29.95 1014.3 0.03
14 22:00 72.6 68.2 86 S 0 G 6 29.95 1014.4 0.03
14 21:00 74.7 69.5 84 S 0 G 5 29.95 1014.2 0.03
14 20:00 78.1 71.1 86.2 78.1 79 SSE 2 G 7 29.94 1014.0 0.03
14 19:00 82.3 72.0 71 WSW 0 G 6 29.93 1013.7 0.03
14 18:00 83.5 72.3 69 W 0 G 4 29.94 1013.9 0.03
14 17:00 84.2 72.5 68 W 1 G 4 29.96 1014.6 0.03
14 16:00 85.1 73.8 69 WNW 1 G 8 29.97 1014.8 0.03
14 15:00 84.2 72.9 69 NNW 1 G 8 29.97 1014.8 0.03
14 14:00 81.4 71.9 81.8 67.9 73 SSW 3 G 9 29.97 1015.1 0.03
14 13:00 81.2 71.7 73 W 1 G 10 29.99 1015.6 0.03
14 12:00 77.2 69.8 78 S 1 G 10 30.00 1015.9 0.03
14 11:00 75.3 69.8 83 SSW 1 G 7 30.00 1016.1 0.03
14 10:00 71.6 67.9 88 S 4 G 11 30.00 1016.1 0.03
14 09:00 69.5 67.4 93 SSW 1 G 4 30.01 1016.2 0.03
14 08:00 68.2 65.5 74.9 67.3 91 S 0 G 2 30.02 1016.8 0.03 0.03 0.03 0.03
14 07:00 69.0 64.6 86 S 0 G 2 30.02 1016.7 0.00
14 06:00 68.3 64.0 86 S 0 G 5 30.02 1016.5 0.00
14 05:00 69.4 65.0 86 NW 0 G 1 30.02 1016.7 0.00
14 04:00 74.2 63.8 70 SSW 1 G 5 30.00 1016.1 0.00

Data generated by WxSolution Version 1.9.1.5, Build 2018.05.20.